createdAt,value
2018-12-31T00:01:51.041Z,20.20
2018-12-31T00:04:17.793Z,20.50
2018-12-31T00:06:44.548Z,20.33
2018-12-31T00:09:11.324Z,19.27
2018-12-31T00:11:38.094Z,18.30
2018-12-31T00:14:04.836Z,23.27
2018-12-31T00:16:31.594Z,19.93
2018-12-31T00:18:58.336Z,20.40
2018-12-31T00:21:25.075Z,18.57
2018-12-31T00:23:51.980Z,17.67
2018-12-31T00:26:18.731Z,17.43
2018-12-31T00:28:45.494Z,18.63
2018-12-31T00:31:12.228Z,16.33
2018-12-31T00:33:39.017Z,17.20
2018-12-31T00:36:05.844Z,17.17
2018-12-31T00:38:32.607Z,17.80
2018-12-31T00:40:59.358Z,17.07
2018-12-31T00:43:26.139Z,16.50
2018-12-31T00:45:52.876Z,18.00
2018-12-31T00:48:19.640Z,18.40
2018-12-31T00:50:46.412Z,18.70
2018-12-31T00:53:13.176Z,18.30
2018-12-31T00:55:39.925Z,22.37
2018-12-31T00:58:06.725Z,19.57
2018-12-31T01:00:33.456Z,18.70
2018-12-31T01:03:00.232Z,18.03
2018-12-31T01:05:26.985Z,18.03
2018-12-31T01:07:53.806Z,17.77
2018-12-31T01:10:20.556Z,19.87
2018-12-31T01:12:47.316Z,23.00
2018-12-31T01:15:14.056Z,18.50
2018-12-31T01:17:40.843Z,18.73
2018-12-31T01:20:07.588Z,18.17
2018-12-31T01:22:34.476Z,17.27
2018-12-31T01:25:01.213Z,15.77
2018-12-31T01:27:27.967Z,16.60
2018-12-31T01:29:54.725Z,16.77
2018-12-31T01:32:21.499Z,17.37
2018-12-31T01:34:48.245Z,16.57
2018-12-31T01:37:14.993Z,17.40
2018-12-31T01:39:41.844Z,18.13
2018-12-31T01:42:08.584Z,22.20
2018-12-31T01:44:35.392Z,22.73
2018-12-31T01:47:02.141Z,23.20
2018-12-31T01:49:28.909Z,23.00
2018-12-31T01:51:55.648Z,18.67
2018-12-31T01:54:22.408Z,18.20
2018-12-31T01:56:49.153Z,17.87
2018-12-31T01:59:15.911Z,17.67
2018-12-31T02:01:42.662Z,17.10
2018-12-31T02:04:09.433Z,16.87
2018-12-31T02:06:36.171Z,18.00
2018-12-31T02:09:03.973Z,17.20
2018-12-31T02:11:30.713Z,17.10
2018-12-31T02:13:57.484Z,16.93
2018-12-31T02:16:24.224Z,17.50
2018-12-31T02:18:51.136Z,17.70
2018-12-31T02:21:17.896Z,17.33
2018-12-31T02:23:44.676Z,16.97
2018-12-31T02:26:11.416Z,15.73
2018-12-31T02:28:38.194Z,17.70
2018-12-31T02:31:04.921Z,16.03
2018-12-31T02:33:31.680Z,17.83
2018-12-31T02:35:58.424Z,23.60
2018-12-31T02:38:25.187Z,20.97
2018-12-31T02:40:51.945Z,19.87
2018-12-31T02:43:18.755Z,26.03
2018-12-31T02:45:45.451Z,21.73
2018-12-31T02:48:12.252Z,25.57
2018-12-31T02:50:39.012Z,26.30
2018-12-31T02:53:05.760Z,26.60
2018-12-31T02:55:32.528Z,21.77
2018-12-31T02:57:59.272Z,21.70
2018-12-31T03:00:26.040Z,19.30
2018-12-31T03:02:52.777Z,18.40
2018-12-31T03:05:19.554Z,18.60
2018-12-31T03:07:46.295Z,18.87
2018-12-31T03:10:13.047Z,18.73
2018-12-31T03:12:39.797Z,17.73
2018-12-31T03:15:06.567Z,24.23
2018-12-31T03:17:33.304Z,20.67
2018-12-31T03:20:00.128Z,22.33
2018-12-31T03:22:26.816Z,18.87
2018-12-31T03:24:53.585Z,19.90
2018-12-31T03:27:20.312Z,19.67
2018-12-31T03:29:47.089Z,18.20
2018-12-31T03:32:13.822Z,19.77
2018-12-31T03:34:40.594Z,24.30
2018-12-31T03:37:07.551Z,26.23
2018-12-31T03:39:34.312Z,19.87
2018-12-31T03:42:01.063Z,21.30
2018-12-31T03:44:27.919Z,22.93
2018-12-31T03:46:54.653Z,18.17
2018-12-31T03:49:21.412Z,16.50
2018-12-31T03:51:48.156Z,17.67
2018-12-31T03:54:14.909Z,19.40
2018-12-31T03:56:41.664Z,16.17
2018-12-31T03:59:08.416Z,17.17
2018-12-31T04:01:35.172Z,17.80
2018-12-31T04:04:01.928Z,18.40
2018-12-31T04:06:28.697Z,16.80
2018-12-31T04:08:55.443Z,17.53
2018-12-31T04:11:22.200Z,22.40
2018-12-31T04:13:48.932Z,18.07
2018-12-31T04:16:15.703Z,19.07
2018-12-31T04:18:42.460Z,17.27
2018-12-31T04:21:09.228Z,15.40
2018-12-31T04:23:35.974Z,15.03
2018-12-31T04:26:02.740Z,21.60
2018-12-31T04:28:29.480Z,22.30
2018-12-31T04:30:57.725Z,18.53
2018-12-31T04:33:24.421Z,18.27
2018-12-31T04:35:51.177Z,17.73
2018-12-31T04:38:17.929Z,18.40
2018-12-31T04:40:44.697Z,16.90
2018-12-31T04:43:11.440Z,20.63
2018-12-31T04:45:38.249Z,18.77
2018-12-31T04:48:05.008Z,16.23
2018-12-31T04:50:31.761Z,21.70
2018-12-31T04:52:58.496Z,19.07
2018-12-31T04:55:25.264Z,16.70
2018-12-31T04:57:52.112Z,15.87
2018-12-31T05:00:18.891Z,15.30
2018-12-31T05:02:45.633Z,14.33
2018-12-31T05:05:12.390Z,13.77
2018-12-31T05:07:39.135Z,13.73
2018-12-31T05:10:05.927Z,14.43
2018-12-31T05:12:32.685Z,14.47
2018-12-31T05:14:59.429Z,14.80
2018-12-31T05:17:26.196Z,13.03
2018-12-31T05:19:52.974Z,13.30
2018-12-31T05:22:19.756Z,16.93
2018-12-31T05:24:46.511Z,13.47
2018-12-31T05:27:13.272Z,16.20
2018-12-31T05:29:40.028Z,16.80
2018-12-31T05:32:06.795Z,13.47
2018-12-31T05:34:33.552Z,11.33
2018-12-31T05:37:00.309Z,10.70
2018-12-31T05:39:27.057Z,10.97
2018-12-31T05:41:53.812Z,11.43
2018-12-31T05:44:20.554Z,9.90
2018-12-31T05:46:47.304Z,11.07
2018-12-31T05:49:14.077Z,11.27
2018-12-31T05:51:40.845Z,11.63
2018-12-31T05:54:07.600Z,11.07
2018-12-31T05:56:34.376Z,15.23
2018-12-31T05:59:01.138Z,15.53
2018-12-31T06:01:27.887Z,16.12
2018-12-31T06:03:54.637Z,12.30
2018-12-31T06:06:21.404Z,12.13
2018-12-31T06:08:48.152Z,11.47
2018-12-31T06:11:14.912Z,14.57
2018-12-31T06:13:41.665Z,12.27
2018-12-31T06:16:08.432Z,10.80
2018-12-31T06:18:35.169Z,11.23
2018-12-31T06:21:02.140Z,10.23
2018-12-31T06:23:28.886Z,10.43
2018-12-31T06:25:55.646Z,10.80
2018-12-31T06:28:22.397Z,10.17
2018-12-31T06:30:49.133Z,10.13
2018-12-31T06:33:15.904Z,9.97
2018-12-31T06:35:42.653Z,10.03
2018-12-31T06:38:09.432Z,11.80
2018-12-31T06:40:36.180Z,11.53
2018-12-31T06:43:02.940Z,12.90
2018-12-31T06:45:29.672Z,12.00
2018-12-31T06:47:56.432Z,10.83
2018-12-31T06:50:23.176Z,10.80
2018-12-31T06:52:49.932Z,11.60
2018-12-31T06:55:16.672Z,11.97
2018-12-31T06:57:43.416Z,10.70
2018-12-31T07:00:10.160Z,10.13
2018-12-31T07:02:36.930Z,10.17
2018-12-31T07:05:03.692Z,10.50
2018-12-31T07:07:30.452Z,9.80
2018-12-31T07:09:57.203Z,10.10
2018-12-31T07:12:23.967Z,10.20
2018-12-31T07:14:50.721Z,9.57
2018-12-31T07:17:17.480Z,10.43
2018-12-31T07:19:44.225Z,10.60
2018-12-31T07:22:10.998Z,13.23
2018-12-31T07:24:37.743Z,14.40
2018-12-31T07:27:04.504Z,11.43
2018-12-31T07:29:31.248Z,11.40
2018-12-31T07:31:58.018Z,10.37
2018-12-31T07:34:24.763Z,11.47
2018-12-31T07:36:51.537Z,14.37
2018-12-31T07:39:18.272Z,15.55
2018-12-31T07:41:45.039Z,12.40
2018-12-31T07:44:11.779Z,10.80
2018-12-31T07:46:39.124Z,10.40
2018-12-31T07:49:06.263Z,11.63
2018-12-31T07:51:33.013Z,10.83
2018-12-31T07:53:59.784Z,11.47
2018-12-31T07:56:26.537Z,11.67
2018-12-31T07:58:53.296Z,16.80
2018-12-31T08:01:20.045Z,17.25
2018-12-31T08:03:46.809Z,12.70
2018-12-31T08:06:13.561Z,11.60
2018-12-31T08:08:40.337Z,10.60
2018-12-31T08:11:07.100Z,10.77
2018-12-31T08:13:33.868Z,15.80
2018-12-31T08:16:00.598Z,14.30
2018-12-31T08:18:27.364Z,12.37
2018-12-31T08:20:54.121Z,11.57
2018-12-31T08:23:21.056Z,11.57
2018-12-31T08:25:47.815Z,12.33
2018-12-31T08:28:14.572Z,10.93
2018-12-31T08:30:41.320Z,11.90
2018-12-31T08:33:08.078Z,10.20
2018-12-31T08:35:34.868Z,10.27
2018-12-31T08:38:01.684Z,11.30
2018-12-31T08:40:28.451Z,11.40
2018-12-31T08:42:55.208Z,11.07
2018-12-31T08:45:22.022Z,10.93
2018-12-31T08:47:48.808Z,10.87
2018-12-31T08:50:15.549Z,10.57
2018-12-31T08:52:42.308Z,9.60
2018-12-31T08:55:09.064Z,11.30
2018-12-31T08:57:35.838Z,10.50
2018-12-31T09:00:03.016Z,10.40
2018-12-31T09:02:29.789Z,11.50
2018-12-31T09:04:56.553Z,15.57
2018-12-31T09:07:23.300Z,13.30
2018-12-31T09:09:50.077Z,16.50
2018-12-31T09:12:16.817Z,17.73
2018-12-31T09:14:43.637Z,15.30
2018-12-31T09:17:10.568Z,16.67
2018-12-31T09:19:37.339Z,14.20
2018-12-31T09:22:04.068Z,12.87
2018-12-31T09:24:30.832Z,13.70
2018-12-31T09:26:57.629Z,17.80
2018-12-31T09:29:24.517Z,16.27
2018-12-31T09:31:51.301Z,15.80
2018-12-31T09:34:18.061Z,14.50
2018-12-31T09:36:45.846Z,15.20
2018-12-31T09:39:11.634Z,13.97
2018-12-31T09:41:38.369Z,16.67
2018-12-31T09:44:05.221Z,14.63
2018-12-31T09:46:31.976Z,13.60
2018-12-31T09:48:58.741Z,14.10
2018-12-31T09:51:25.508Z,16.90
2018-12-31T09:53:52.273Z,13.50
2018-12-31T09:56:19.032Z,13.43
2018-12-31T09:58:45.780Z,13.10
2018-12-31T10:01:12.524Z,11.80
2018-12-31T10:03:39.302Z,11.33
2018-12-31T10:06:06.057Z,11.43
2018-12-31T10:08:33.040Z,10.27
2018-12-31T10:10:59.773Z,13.98
2018-12-31T10:13:26.568Z,11.70
2018-12-31T10:15:53.314Z,10.80
2018-12-31T10:18:20.056Z,10.17
2018-12-31T10:20:46.904Z,9.67
2018-12-31T10:23:13.649Z,9.53
2018-12-31T10:25:40.551Z,9.87
2018-12-31T10:28:07.359Z,8.57
2018-12-31T10:30:34.133Z,11.23
2018-12-31T10:33:00.876Z,10.47
2018-12-31T10:35:27.644Z,10.67
2018-12-31T10:37:54.546Z,10.63
2018-12-31T10:40:21.312Z,10.20
2018-12-31T10:42:48.163Z,9.83
2018-12-31T10:45:14.904Z,9.17
2018-12-31T10:47:41.644Z,9.20
2018-12-31T10:50:08.472Z,8.63
2018-12-31T10:52:35.213Z,9.63
2018-12-31T10:55:01.986Z,9.10
2018-12-31T10:57:28.713Z,9.93
2018-12-31T10:59:55.476Z,9.30
2018-12-31T11:02:23.248Z,8.60
2018-12-31T11:04:48.985Z,8.57
2018-12-31T11:07:15.728Z,8.60
2018-12-31T11:09:42.504Z,8.23
2018-12-31T11:12:09.252Z,10.30
2018-12-31T11:14:36.038Z,13.45
2018-12-31T11:17:02.781Z,11.93
2018-12-31T11:19:29.538Z,12.23
2018-12-31T11:21:56.293Z,10.13
2018-12-31T11:24:23.105Z,14.30
2018-12-31T11:26:49.844Z,10.57
2018-12-31T11:29:16.593Z,10.03
2018-12-31T11:31:43.345Z,9.23
2018-12-31T11:34:10.097Z,9.37
2018-12-31T11:36:36.860Z,10.98
2018-12-31T11:39:05.849Z,12.53
2018-12-31T11:41:32.608Z,9.70
2018-12-31T11:43:59.352Z,9.13
2018-12-31T11:46:26.133Z,9.30
2018-12-31T11:48:52.885Z,8.77
2018-12-31T11:51:19.644Z,10.50
2018-12-31T11:53:46.416Z,10.37
2018-12-31T11:56:13.197Z,9.90
2018-12-31T11:58:39.929Z,9.10
2018-12-31T12:01:06.696Z,8.90
2018-12-31T12:03:33.431Z,11.53
2018-12-31T12:06:00.180Z,11.07
2018-12-31T12:08:26.932Z,10.23
2018-12-31T12:10:53.705Z,10.80
2018-12-31T12:13:20.473Z,10.10
2018-12-31T12:15:47.233Z,10.87
2018-12-31T12:18:13.979Z,9.80
2018-12-31T12:20:40.825Z,10.40
2018-12-31T12:23:07.576Z,10.40
2018-12-31T12:25:34.343Z,10.20
2018-12-31T12:28:01.212Z,9.50
2018-12-31T12:30:27.980Z,9.57
2018-12-31T12:32:54.719Z,9.70
2018-12-31T12:35:21.536Z,13.00
2018-12-31T12:37:48.674Z,11.70
2018-12-31T12:40:15.056Z,10.93
2018-12-31T12:42:41.785Z,14.30
2018-12-31T12:45:08.529Z,11.97
2018-12-31T12:47:35.280Z,11.23
2018-12-31T12:50:02.159Z,11.90
2018-12-31T12:52:28.952Z,10.30
2018-12-31T12:54:55.685Z,10.60
2018-12-31T12:57:22.448Z,11.60
2018-12-31T12:59:49.196Z,11.23
2018-12-31T13:02:15.996Z,11.30
2018-12-31T13:04:42.766Z,11.17
2018-12-31T13:07:09.560Z,20.43
2018-12-31T13:09:36.413Z,15.30
2018-12-31T13:12:03.196Z,12.17
2018-12-31T13:14:29.990Z,12.97
2018-12-31T13:16:56.772Z,12.83
2018-12-31T13:19:23.532Z,13.63
2018-12-31T13:21:50.490Z,11.77
2018-12-31T13:24:18.897Z,11.80
2018-12-31T13:26:44.033Z,12.80
2018-12-31T13:29:10.768Z,11.40
2018-12-31T13:31:37.558Z,10.87
2018-12-31T13:34:04.298Z,11.03
2018-12-31T13:36:31.063Z,11.90
2018-12-31T13:38:57.900Z,11.53
2018-12-31T13:41:24.709Z,11.40
2018-12-31T13:43:51.480Z,10.47
2018-12-31T13:46:18.251Z,13.13
2018-12-31T13:48:44.990Z,13.80
2018-12-31T13:51:11.749Z,11.73
2018-12-31T13:53:38.522Z,12.63
2018-12-31T13:56:05.281Z,11.70
2018-12-31T13:58:32.017Z,14.20
2018-12-31T14:00:58.764Z,15.97
2018-12-31T14:03:25.528Z,14.60
2018-12-31T14:05:52.280Z,13.40
2018-12-31T14:08:19.052Z,16.65
2018-12-31T14:10:45.784Z,13.50
2018-12-31T14:13:12.551Z,14.23
2018-12-31T14:15:39.293Z,13.27
2018-12-31T14:18:06.056Z,13.57
2018-12-31T14:20:32.808Z,14.00
2018-12-31T14:22:59.593Z,16.80
2018-12-31T14:25:26.349Z,18.95
2018-12-31T14:27:53.122Z,16.00
2018-12-31T14:30:19.876Z,16.17
2018-12-31T14:32:46.664Z,18.15
2018-12-31T14:35:13.412Z,16.57
2018-12-31T14:37:40.185Z,16.47
2018-12-31T14:40:07.314Z,16.53
2018-12-31T14:42:34.126Z,19.75
2018-12-31T14:45:00.885Z,19.90
2018-12-31T14:47:27.654Z,17.23
2018-12-31T14:49:54.736Z,17.27
2018-12-31T14:52:21.532Z,17.20
2018-12-31T14:54:48.317Z,16.30
2018-12-31T14:57:15.089Z,16.73
2018-12-31T14:59:41.838Z,16.97
2018-12-31T15:02:08.597Z,17.10
2018-12-31T15:04:35.360Z,16.80
2018-12-31T15:07:02.116Z,16.07
2018-12-31T15:09:28.856Z,15.33
2018-12-31T15:11:55.617Z,16.10
2018-12-31T15:14:22.396Z,15.80
2018-12-31T15:16:49.149Z,16.30
2018-12-31T15:19:15.916Z,17.87
2018-12-31T15:21:42.681Z,22.98
2018-12-31T15:24:09.463Z,18.60
2018-12-31T15:26:36.205Z,18.67
2018-12-31T15:29:03.010Z,17.87
2018-12-31T15:31:29.754Z,23.90
2018-12-31T15:33:56.705Z,19.10
2018-12-31T15:36:23.636Z,19.13
2018-12-31T15:38:50.397Z,18.50
2018-12-31T15:41:17.138Z,19.30
2018-12-31T15:43:43.940Z,17.83
2018-12-31T15:46:10.684Z,18.93
2018-12-31T15:48:37.448Z,16.63
2018-12-31T15:51:04.222Z,17.43
2018-12-31T15:53:30.990Z,18.30
2018-12-31T15:55:58.718Z,18.97
2018-12-31T15:58:24.520Z,18.50
2018-12-31T16:00:52.004Z,17.57
2018-12-31T16:03:18.764Z,19.40
2018-12-31T16:05:45.554Z,24.52
2018-12-31T16:08:12.421Z,21.10
2018-12-31T16:10:39.149Z,19.60
2018-12-31T16:13:05.936Z,21.00
2018-12-31T16:15:32.685Z,20.07
2018-12-31T16:17:59.448Z,20.00
2018-12-31T16:20:26.224Z,19.23
2018-12-31T16:22:52.984Z,21.00
2018-12-31T16:25:19.736Z,19.67
2018-12-31T16:27:46.492Z,21.33
2018-12-31T16:30:13.261Z,19.20
2018-12-31T16:32:40.004Z,22.67
2018-12-31T16:35:06.761Z,28.87
2018-12-31T16:37:33.509Z,25.43
2018-12-31T16:40:00.280Z,26.43
2018-12-31T16:42:27.025Z,39.00
2018-12-31T16:44:53.793Z,40.90
2018-12-31T16:47:20.531Z,35.87
2018-12-31T16:49:47.308Z,48.40
2018-12-31T16:52:14.077Z,52.17
2018-12-31T16:54:40.836Z,39.30
2018-12-31T16:57:07.588Z,120.50
2018-12-31T16:59:34.352Z,187.03
2018-12-31T17:02:01.096Z,145.37
2018-12-31T17:04:27.956Z,129.03
2018-12-31T17:06:54.696Z,98.67
2018-12-31T17:09:21.473Z,44.03
2018-12-31T17:11:48.216Z,41.70
2018-12-31T17:14:14.992Z,37.60
2018-12-31T17:16:41.733Z,24.77
2018-12-31T17:19:08.498Z,22.10
2018-12-31T17:21:35.239Z,24.20
2018-12-31T17:24:02.012Z,23.00
2018-12-31T17:26:28.767Z,28.57
2018-12-31T17:28:55.549Z,25.13
2018-12-31T17:31:22.293Z,22.73
2018-12-31T17:33:49.044Z,23.13
2018-12-31T17:36:15.796Z,23.47
2018-12-31T17:38:42.564Z,28.98
2018-12-31T17:41:09.324Z,23.90
2018-12-31T17:43:36.101Z,22.10
2018-12-31T17:46:02.931Z,23.17
2018-12-31T17:48:29.804Z,23.83
2018-12-31T17:50:56.683Z,21.10
2018-12-31T17:53:23.429Z,30.27
2018-12-31T17:55:50.197Z,25.50
2018-12-31T17:58:16.949Z,23.83
2018-12-31T18:00:43.728Z,23.60
2018-12-31T18:05:37.992Z,22.10
2018-12-31T18:08:04.749Z,21.47
2018-12-31T18:10:31.520Z,29.18
2018-12-31T18:12:58.280Z,31.57
2018-12-31T18:15:25.042Z,27.40
2018-12-31T18:17:51.788Z,26.57
2018-12-31T18:20:18.545Z,23.63
2018-12-31T18:22:45.315Z,21.03
2018-12-31T18:25:12.076Z,21.13
2018-12-31T18:27:38.829Z,20.50
2018-12-31T18:30:07.204Z,20.37
2018-12-31T18:32:33.959Z,22.83
2018-12-31T18:35:00.723Z,23.10
2018-12-31T18:37:27.472Z,22.30
2018-12-31T18:39:58.213Z,21.87
2018-12-31T18:42:20.969Z,21.93
2018-12-31T18:44:47.740Z,21.50
2018-12-31T18:47:14.472Z,21.07
2018-12-31T18:49:41.244Z,21.87
2018-12-31T18:52:07.993Z,20.90
2018-12-31T18:54:34.805Z,22.60
2018-12-31T18:57:01.498Z,21.47
2018-12-31T18:59:28.269Z,28.02
2018-12-31T19:01:55.020Z,24.10
2018-12-31T19:04:21.777Z,24.00
2018-12-31T19:06:48.520Z,22.33
2018-12-31T19:09:15.272Z,21.10
2018-12-31T19:11:42.128Z,22.47
2018-12-31T19:14:08.884Z,22.30
2018-12-31T19:16:35.652Z,20.47
2018-12-31T19:19:02.409Z,20.13
2018-12-31T19:21:29.176Z,21.27
2018-12-31T19:23:55.917Z,19.67
2018-12-31T19:26:22.688Z,20.40
2018-12-31T19:28:49.428Z,20.57
2018-12-31T19:31:16.194Z,19.87
2018-12-31T19:33:42.925Z,18.90
2018-12-31T19:36:09.692Z,19.20
2018-12-31T19:38:36.438Z,20.30
2018-12-31T19:41:03.206Z,21.20
2018-12-31T19:43:29.952Z,22.50
2018-12-31T19:45:56.716Z,28.98
2018-12-31T19:48:23.461Z,24.40
2018-12-31T19:50:50.240Z,21.27
2018-12-31T19:53:16.986Z,21.20
2018-12-31T19:55:43.746Z,20.60
2018-12-31T19:58:10.497Z,19.33
2018-12-31T20:00:37.257Z,20.37
2018-12-31T20:03:03.992Z,20.73
2018-12-31T20:05:30.757Z,20.57
2018-12-31T20:07:57.509Z,21.80
2018-12-31T20:10:24.270Z,20.37
2018-12-31T20:12:51.009Z,21.00
2018-12-31T20:15:17.759Z,21.37
2018-12-31T20:17:44.540Z,21.20
2018-12-31T20:20:11.281Z,20.67
2018-12-31T20:22:38.048Z,20.33
2018-12-31T20:25:04.804Z,22.17
2018-12-31T20:27:31.585Z,22.90
2018-12-31T20:29:58.321Z,22.10
2018-12-31T20:32:25.081Z,21.20
2018-12-31T20:34:51.824Z,21.53
2018-12-31T20:37:18.608Z,21.90
2018-12-31T20:39:45.349Z,23.20
2018-12-31T20:42:12.114Z,19.30
2018-12-31T20:44:38.851Z,21.73
2018-12-31T20:47:05.617Z,20.00
2018-12-31T20:49:32.360Z,21.50
2018-12-31T20:51:59.109Z,23.30
2018-12-31T20:54:25.856Z,20.30
2018-12-31T20:56:52.620Z,21.40
2018-12-31T20:59:19.386Z,23.43
2018-12-31T21:01:46.148Z,21.90
2018-12-31T21:04:12.897Z,21.60
2018-12-31T21:06:39.672Z,28.30
2018-12-31T21:09:07.120Z,23.00
2018-12-31T21:11:35.017Z,21.23
2018-12-31T21:14:01.793Z,21.20
2018-12-31T21:16:28.564Z,22.57
2018-12-31T21:18:55.304Z,21.67
2018-12-31T21:21:22.077Z,21.50
2018-12-31T21:23:48.816Z,21.30
2018-12-31T21:26:15.580Z,20.90
2018-12-31T21:28:42.321Z,22.93
2018-12-31T21:31:09.064Z,23.40
2018-12-31T21:33:35.823Z,21.90
2018-12-31T21:36:02.572Z,20.73
2018-12-31T21:38:29.329Z,27.95
2018-12-31T21:40:56.077Z,23.67
2018-12-31T21:43:22.836Z,21.63
2018-12-31T21:45:49.580Z,21.40
2018-12-31T21:48:16.351Z,22.50
2018-12-31T21:50:43.089Z,20.97
2018-12-31T21:53:09.856Z,21.13
2018-12-31T21:55:36.604Z,20.90
2018-12-31T21:58:03.370Z,19.90
2018-12-31T22:00:30.116Z,21.67
2018-12-31T22:02:57.395Z,20.23
2018-12-31T22:05:23.672Z,20.17
2018-12-31T22:07:50.438Z,21.60
2018-12-31T22:10:17.293Z,21.13
2018-12-31T22:12:44.052Z,21.03
2018-12-31T22:15:10.797Z,22.47
2018-12-31T22:17:37.573Z,21.03
2018-12-31T22:20:05.284Z,22.37
2018-12-31T22:22:32.053Z,22.30
2018-12-31T22:24:58.802Z,24.87
2018-12-31T22:27:25.577Z,28.35
2018-12-31T22:29:52.316Z,23.70
2018-12-31T22:32:19.095Z,22.30
2018-12-31T22:34:45.840Z,21.80
2018-12-31T22:37:12.597Z,22.90
2018-12-31T22:39:39.354Z,22.47
2018-12-31T22:42:06.117Z,30.00
2018-12-31T22:44:32.848Z,24.40
2018-12-31T22:46:59.614Z,23.73
2018-12-31T22:49:26.356Z,21.40
2018-12-31T22:51:53.116Z,21.20
2018-12-31T22:54:19.873Z,22.07
2018-12-31T22:56:46.633Z,28.30
2018-12-31T22:59:13.386Z,30.17
2018-12-31T23:01:40.127Z,219.80
2018-12-31T23:04:06.901Z,81.57
2018-12-31T23:06:34.020Z,331.70
2018-12-31T23:09:00.933Z,439.07
2018-12-31T23:11:27.681Z,261.23
2018-12-31T23:13:54.464Z,214.37
2018-12-31T23:16:23.813Z,349.87
2018-12-31T23:18:50.604Z,230.90
2018-12-31T23:21:17.486Z,297.33
2018-12-31T23:23:44.248Z,163.00
2018-12-31T23:26:10.985Z,219.77
2018-12-31T23:28:37.749Z,221.50
2018-12-31T23:31:04.496Z,284.03
2018-12-31T23:33:31.260Z,88.73
2018-12-31T23:35:58.011Z,53.67
2018-12-31T23:38:24.767Z,55.10
2018-12-31T23:40:51.540Z,40.90
2018-12-31T23:43:18.312Z,50.60
2018-12-31T23:45:45.060Z,41.70
2018-12-31T23:48:11.832Z,38.97
2018-12-31T23:50:38.590Z,54.33
2018-12-31T23:53:05.373Z,82.07
2018-12-31T23:55:32.109Z,67.37
2018-12-31T23:57:58.879Z,67.00
